sensor_id;sensor_type;location;lat;lon;timestamp;P1;P2;P0
84756;PMS5003;74980;50.776;-3.082;2024-01-07T00:01:34;32;31;
84756;PMS5003;74980;50.776;-3.082;2024-01-07T00:03:59;34;31;
84756;PMS5003;74980;50.776;-3.082;2024-01-07T00:06:25;30;27;
84756;PMS5003;74980;50.776;-3.082;2024-01-07T00:08:50;30;27;
84756;PMS5003;74980;50.776;-3.082;2024-01-07T00:11:16;31;28;
84756;PMS5003;74980;50.776;-3.082;2024-01-07T00:13:41;31;26;
84756;PMS5003;74980;50.776;-3.082;2024-01-07T00:16:07;29;27;
84756;PMS5003;74980;50.776;-3.082;2024-01-07T00:18:32;23;21;
84756;PMS5003;74980;50.776;-3.082;2024-01-07T00:20:57;27;24;
84756;PMS5003;74980;50.776;-3.082;2024-01-07T00:23:23;24;22;
84756;PMS5003;74980;50.776;-3.082;2024-01-07T00:25:48;20;19;
84756;PMS5003;74980;50.776;-3.082;2024-01-07T00:28:13;23;22;
84756;PMS5003;74980;50.776;-3.082;2024-01-07T00:30:39;23;22;
84756;PMS5003;74980;50.776;-3.082;2024-01-07T00:33:04;20;19;
84756;PMS5003;74980;50.776;-3.082;2024-01-07T00:35:30;20;18;
84756;PMS5003;74980;50.776;-3.082;2024-01-07T00:37:56;20;19;
84756;PMS5003;74980;50.776;-3.082;2024-01-07T00:40:21;18;17;
84756;PMS5003;74980;50.776;-3.082;2024-01-07T00:42:47;20;18;
84756;PMS5003;74980;50.776;-3.082;2024-01-07T00:45:12;20;17;
84756;PMS5003;74980;50.776;-3.082;2024-01-07T00:47:38;18;16;
84756;PMS5003;74980;50.776;-3.082;2024-01-07T00:50:03;20;18;
84756;PMS5003;74980;50.776;-3.082;2024-01-07T00:52:28;15;13;
84756;PMS5003;74980;50.776;-3.082;2024-01-07T00:54:54;19;17;
84756;PMS5003;74980;50.776;-3.082;2024-01-07T00:57:19;18;15;
84756;PMS5003;74980;50.776;-3.082;2024-01-07T00:59:44;14;14;
84756;PMS5003;74980;50.776;-3.082;2024-01-07T01:02:11;11;11;
84756;PMS5003;74980;50.776;-3.082;2024-01-07T01:04:38;13;11;
84756;PMS5003;74980;50.776;-3.082;2024-01-07T01:07:00;12;10;
84756;PMS5003;74980;50.776;-3.082;2024-01-07T01:09:27;12;10;
84756;PMS5003;74980;50.776;-3.082;2024-01-07T01:11:51;14;13;
84756;PMS5003;74980;50.776;-3.082;2024-01-07T01:14:17;12;12;
84756;PMS5003;74980;50.776;-3.082;2024-01-07T01:16:43;15;13;
84756;PMS5003;74980;50.776;-3.082;2024-01-07T01:19:08;13;11;
84756;PMS5003;74980;50.776;-3.082;2024-01-07T01:21:33;13;11;
84756;PMS5003;74980;50.776;-3.082;2024-01-07T01:23:59;11;9;
84756;PMS5003;74980;50.776;-3.082;2024-01-07T01:26:24;10;9;
84756;PMS5003;74980;50.776;-3.082;2024-01-07T01:28:50;8;8;
84756;PMS5003;74980;50.776;-3.082;2024-01-07T01:31:16;9;8;
84756;PMS5003;74980;50.776;-3.082;2024-01-07T01:33:41;11;10;
84756;PMS5003;74980;50.776;-3.082;2024-01-07T01:36:07;10;7;
84756;PMS5003;74980;50.776;-3.082;2024-01-07T01:38:32;10;7;
84756;PMS5003;74980;50.776;-3.082;2024-01-07T01:40:58;9;8;
84756;PMS5003;74980;50.776;-3.082;2024-01-07T01:43:23;10;7;
84756;PMS5003;74980;50.776;-3.082;2024-01-07T01:45:48;9;9;
84756;PMS5003;74980;50.776;-3.082;2024-01-07T01:48:14;8;8;
84756;PMS5003;74980;50.776;-3.082;2024-01-07T01:50:39;5;5;
84756;PMS5003;74980;50.776;-3.082;2024-01-07T01:53:05;9;8;
84756;PMS5003;74980;50.776;-3.082;2024-01-07T01:55:31;8;7;
84756;PMS5003;74980;50.776;-3.082;2024-01-07T01:57:56;5;5;
84756;PMS5003;74980;50.776;-3.082;2024-01-07T02:00:22;11;7;
84756;PMS5003;74980;50.776;-3.082;2024-01-07T02:02:47;4;4;
84756;PMS5003;74980;50.776;-3.082;2024-01-07T02:05:13;6;6;
84756;PMS5003;74980;50.776;-3.082;2024-01-07T02:07:38;5;4;
84756;PMS5003;74980;50.776;-3.082;2024-01-07T02:10:04;5;5;
84756;PMS5003;74980;50.776;-3.082;2024-01-07T02:12:30;5;5;
84756;PMS5003;74980;50.776;-3.082;2024-01-07T02:14:55;7;4;
84756;PMS5003;74980;50.776;-3.082;2024-01-07T02:17:20;4;4;
84756;PMS5003;74980;50.776;-3.082;2024-01-07T02:19:46;5;4;
84756;PMS5003;74980;50.776;-3.082;2024-01-07T02:22:12;5;4;
84756;PMS5003;74980;50.776;-3.082;2024-01-07T02:24:37;5;5;
84756;PMS5003;74980;50.776;-3.082;2024-01-07T02:27:03;5;4;
84756;PMS5003;74980;50.776;-3.082;2024-01-07T02:29:28;4;4;
84756;PMS5003;74980;50.776;-3.082;2024-01-07T02:31:54;5;5;
84756;PMS5003;74980;50.776;-3.082;2024-01-07T02:34:19;3;3;
84756;PMS5003;74980;50.776;-3.082;2024-01-07T02:36:45;4;4;
84756;PMS5003;74980;50.776;-3.082;2024-01-07T02:39:10;4;4;
84756;PMS5003;74980;50.776;-3.082;2024-01-07T02:41:37;5;5;
84756;PMS5003;74980;50.776;-3.082;2024-01-07T02:44:01;3;3;
84756;PMS5003;74980;50.776;-3.082;2024-01-07T02:46:27;5;4;
84756;PMS5003;74980;50.776;-3.082;2024-01-07T02:48:52;4;4;
84756;PMS5003;74980;50.776;-3.082;2024-01-07T02:51:18;4;4;
84756;PMS5003;74980;50.776;-3.082;2024-01-07T02:53:44;2;2;
84756;PMS5003;74980;50.776;-3.082;2024-01-07T02:56:09;5;3;
84756;PMS5003;74980;50.776;-3.082;2024-01-07T02:58:35;2;2;
84756;PMS5003;74980;50.776;-3.082;2024-01-07T03:01:00;2;2;
84756;PMS5003;74980;50.776;-3.082;2024-01-07T03:03:26;4;4;
84756;PMS5003;74980;50.776;-3.082;2024-01-07T03:05:51;3;2;
84756;PMS5003;74980;50.776;-3.082;2024-01-07T03:08:17;3;3;
84756;PMS5003;74980;50.776;-3.082;2024-01-07T03:10:42;2;2;
84756;PMS5003;74980;50.776;-3.082;2024-01-07T03:13:08;2;2;
84756;PMS5003;74980;50.776;-3.082;2024-01-07T03:15:34;0;0;
84756;PMS5003;74980;50.776;-3.082;2024-01-07T03:17:59;2;2;
84756;PMS5003;74980;50.776;-3.082;2024-01-07T03:20:25;2;2;
84756;PMS5003;74980;50.776;-3.082;2024-01-07T03:22:50;2;2;
84756;PMS5003;74980;50.776;-3.082;2024-01-07T03:25:16;3;2;
84756;PMS5003;74980;50.776;-3.082;2024-01-07T03:27:41;2;2;
84756;PMS5003;74980;50.776;-3.082;2024-01-07T03:30:07;2;2;
84756;PMS5003;74980;50.776;-3.082;2024-01-07T03:32:32;2;2;
84756;PMS5003;74980;50.776;-3.082;2024-01-07T03:34:58;2;1;
84756;PMS5003;74980;50.776;-3.082;2024-01-07T03:37:23;2;2;
84756;PMS5003;74980;50.776;-3.082;2024-01-07T03:39:49;2;2;
84756;PMS5003;74980;50.776;-3.082;2024-01-07T03:42:14;0;0;
84756;PMS5003;74980;50.776;-3.082;2024-01-07T03:44:40;2;2;
84756;PMS5003;74980;50.776;-3.082;2024-01-07T03:47:06;2;1;
84756;PMS5003;74980;50.776;-3.082;2024-01-07T03:49:31;1;1;
84756;PMS5003;74980;50.776;-3.082;2024-01-07T03:51:56;1;1;
84756;PMS5003;74980;50.776;-3.082;2024-01-07T03:54:22;1;1;
84756;PMS5003;74980;50.776;-3.082;2024-01-07T03:56:47;1;1;
84756;PMS5003;74980;50.776;-3.082;2024-01-07T03:59:13;1;1;
84756;PMS5003;74980;50.776;-3.082;2024-01-07T04:01:39;2;1;
84756;PMS5003;74980;50.776;-3.082;2024-01-07T04:04:04;0;0;
84756;PMS5003;74980;50.776;-3.082;2024-01-07T04:06:30;2;2;
84756;PMS5003;74980;50.776;-3.082;2024-01-07T04:08:55;1;1;
84756;PMS5003;74980;50.776;-3.082;2024-01-07T04:11:21;1;1;
84756;PMS5003;74980;50.776;-3.082;2024-01-07T04:13:46;1;1;
84756;PMS5003;74980;50.776;-3.082;2024-01-07T04:16:15;1;1;
84756;PMS5003;74980;50.776;-3.082;2024-01-07T04:18:37;1;1;
84756;PMS5003;74980;50.776;-3.082;2024-01-07T04:21:03;2;2;
84756;PMS5003;74980;50.776;-3.082;2024-01-07T04:23:28;1;1;
84756;PMS5003;74980;50.776;-3.082;2024-01-07T04:25:54;1;1;
84756;PMS5003;74980;50.776;-3.082;2024-01-07T04:28:20;2;2;
84756;PMS5003;74980;50.776;-3.082;2024-01-07T04:30:45;1;1;
84756;PMS5003;74980;50.776;-3.082;2024-01-07T04:33:11;1;1;
84756;PMS5003;74980;50.776;-3.082;2024-01-07T04:35:36;1;1;
84756;PMS5003;74980;50.776;-3.082;2024-01-07T04:38:02;1;1;
84756;PMS5003;74980;50.776;-3.082;2024-01-07T04:40:27;1;1;
84756;PMS5003;74980;50.776;-3.082;2024-01-07T04:42:53;2;2;
84756;PMS5003;74980;50.776;-3.082;2024-01-07T04:45:18;0;0;
84756;PMS5003;74980;50.776;-3.082;2024-01-07T04:47:44;0;0;
84756;PMS5003;74980;50.776;-3.082;2024-01-07T04:50:09;1;1;
84756;PMS5003;74980;50.776;-3.082;2024-01-07T04:52:35;1;1;
84756;PMS5003;74980;50.776;-3.082;2024-01-07T04:55:00;1;1;
84756;PMS5003;74980;50.776;-3.082;2024-01-07T04:57:26;1;1;
84756;PMS5003;74980;50.776;-3.082;2024-01-07T04:59:51;0;0;
84756;PMS5003;74980;50.776;-3.082;2024-01-07T05:02:17;1;1;
84756;PMS5003;74980;50.776;-3.082;2024-01-07T05:04:43;2;2;
84756;PMS5003;74980;50.776;-3.082;2024-01-07T05:07:08;1;1;
84756;PMS5003;74980;50.776;-3.082;2024-01-07T05:09:34;2;1;
84756;PMS5003;74980;50.776;-3.082;2024-01-07T05:11:59;0;0;
84756;PMS5003;74980;50.776;-3.082;2024-01-07T05:14:25;1;1;
84756;PMS5003;74980;50.776;-3.082;2024-01-07T05:16:50;1;1;
84756;PMS5003;74980;50.776;-3.082;2024-01-07T05:19:16;0;0;
84756;PMS5003;74980;50.776;-3.082;2024-01-07T05:21:41;1;1;
84756;PMS5003;74980;50.776;-3.082;2024-01-07T05:24:07;1;1;
84756;PMS5003;74980;50.776;-3.082;2024-01-07T05:28:58;1;1;
84756;PMS5003;74980;50.776;-3.082;2024-01-07T05:31:23;1;1;
84756;PMS5003;74980;50.776;-3.082;2024-01-07T05:33:49;1;1;
84756;PMS5003;74980;50.776;-3.082;2024-01-07T05:36:14;1;1;
84756;PMS5003;74980;50.776;-3.082;2024-01-07T05:38:41;2;1;
84756;PMS5003;74980;50.776;-3.082;2024-01-07T05:41:05;2;2;
84756;PMS5003;74980;50.776;-3.082;2024-01-07T05:43:31;1;1;
84756;PMS5003;74980;50.776;-3.082;2024-01-07T05:45:56;1;1;
84756;PMS5003;74980;50.776;-3.082;2024-01-07T05:48:22;2;2;
84756;PMS5003;74980;50.776;-3.082;2024-01-07T05:50:48;2;2;
84756;PMS5003;74980;50.776;-3.082;2024-01-07T05:53:13;1;1;
84756;PMS5003;74980;50.776;-3.082;2024-01-07T05:55:39;2;2;
84756;PMS5003;74980;50.776;-3.082;2024-01-07T05:58:04;2;2;
84756;PMS5003;74980;50.776;-3.082;2024-01-07T06:00:30;1;1;
84756;PMS5003;74980;50.776;-3.082;2024-01-07T06:02:55;2;2;
84756;PMS5003;74980;50.776;-3.082;2024-01-07T06:05:21;3;2;
84756;PMS5003;74980;50.776;-3.082;2024-01-07T06:07:46;1;1;
84756;PMS5003;74980;50.776;-3.082;2024-01-07T06:10:12;1;1;
84756;PMS5003;74980;50.776;-3.082;2024-01-07T06:12:37;0;0;
84756;PMS5003;74980;50.776;-3.082;2024-01-07T06:15:03;1;1;
84756;PMS5003;74980;50.776;-3.082;2024-01-07T06:17:28;3;2;
84756;PMS5003;74980;50.776;-3.082;2024-01-07T06:19:54;2;1;
84756;PMS5003;74980;50.776;-3.082;2024-01-07T06:22:19;2;2;
84756;PMS5003;74980;50.776;-3.082;2024-01-07T06:24:45;1;1;
84756;PMS5003;74980;50.776;-3.082;2024-01-07T06:27:10;1;1;
84756;PMS5003;74980;50.776;-3.082;2024-01-07T06:29:36;2;2;
84756;PMS5003;74980;50.776;-3.082;2024-01-07T06:32:02;2;2;
84756;PMS5003;74980;50.776;-3.082;2024-01-07T06:34:27;3;2;
84756;PMS5003;74980;50.776;-3.082;2024-01-07T06:36:53;2;2;
84756;PMS5003;74980;50.776;-3.082;2024-01-07T06:39:18;2;2;
84756;PMS5003;74980;50.776;-3.082;2024-01-07T06:41:44;3;3;
84756;PMS5003;74980;50.776;-3.082;2024-01-07T06:44:09;1;1;
84756;PMS5003;74980;50.776;-3.082;2024-01-07T06:46:35;4;4;
84756;PMS5003;74980;50.776;-3.082;2024-01-07T06:49:00;3;3;
84756;PMS5003;74980;50.776;-3.082;2024-01-07T06:51:26;3;2;
84756;PMS5003;74980;50.776;-3.082;2024-01-07T06:53:51;3;3;
84756;PMS5003;74980;50.776;-3.082;2024-01-07T06:56:17;3;3;
84756;PMS5003;74980;50.776;-3.082;2024-01-07T06:58:43;3;3;
84756;PMS5003;74980;50.776;-3.082;2024-01-07T07:01:08;3;3;
84756;PMS5003;74980;50.776;-3.082;2024-01-07T07:03:33;2;2;
84756;PMS5003;74980;50.776;-3.082;2024-01-07T07:05:59;3;3;
84756;PMS5003;74980;50.776;-3.082;2024-01-07T07:08:25;1;1;
84756;PMS5003;74980;50.776;-3.082;2024-01-07T07:10:50;3;2;
84756;PMS5003;74980;50.776;-3.082;2024-01-07T07:13:16;2;2;
84756;PMS5003;74980;50.776;-3.082;2024-01-07T07:15:41;2;2;
84756;PMS5003;74980;50.776;-3.082;2024-01-07T07:18:07;3;2;
84756;PMS5003;74980;50.776;-3.082;2024-01-07T07:20:32;2;2;
84756;PMS5003;74980;50.776;-3.082;2024-01-07T07:22:58;1;1;
84756;PMS5003;74980;50.776;-3.082;2024-01-07T07:25:23;2;2;
84756;PMS5003;74980;50.776;-3.082;2024-01-07T07:27:49;3;2;
84756;PMS5003;74980;50.776;-3.082;2024-01-07T07:30:15;2;2;
84756;PMS5003;74980;50.776;-3.082;2024-01-07T07:32:40;2;2;
84756;PMS5003;74980;50.776;-3.082;2024-01-07T07:35:06;1;1;
84756;PMS5003;74980;50.776;-3.082;2024-01-07T07:37:31;2;2;
84756;PMS5003;74980;50.776;-3.082;2024-01-07T07:39:57;2;2;
84756;PMS5003;74980;50.776;-3.082;2024-01-07T07:42:22;2;2;
84756;PMS5003;74980;50.776;-3.082;2024-01-07T07:44:48;2;2;
84756;PMS5003;74980;50.776;-3.082;2024-01-07T07:47:13;1;1;
84756;PMS5003;74980;50.776;-3.082;2024-01-07T07:49:39;2;2;
84756;PMS5003;74980;50.776;-3.082;2024-01-07T07:52:04;3;3;
84756;PMS5003;74980;50.776;-3.082;2024-01-07T07:54:30;3;3;
84756;PMS5003;74980;50.776;-3.082;2024-01-07T07:56:55;2;2;
84756;PMS5003;74980;50.776;-3.082;2024-01-07T07:59:21;3;3;
84756;PMS5003;74980;50.776;-3.082;2024-01-07T08:01:46;3;3;
84756;PMS5003;74980;50.776;-3.082;2024-01-07T08:04:12;3;3;
84756;PMS5003;74980;50.776;-3.082;2024-01-07T08:06:37;2;2;
84756;PMS5003;74980;50.776;-3.082;2024-01-07T08:09:03;3;3;
84756;PMS5003;74980;50.776;-3.082;2024-01-07T08:11:28;4;4;
84756;PMS5003;74980;50.776;-3.082;2024-01-07T08:13:54;3;3;
84756;PMS5003;74980;50.776;-3.082;2024-01-07T08:16:20;3;3;
84756;PMS5003;74980;50.776;-3.082;2024-01-07T08:18:45;4;4;
84756;PMS5003;74980;50.776;-3.082;2024-01-07T08:21:11;3;3;
84756;PMS5003;74980;50.776;-3.082;2024-01-07T08:23:36;2;2;
84756;PMS5003;74980;50.776;-3.082;2024-01-07T08:26:02;2;2;
84756;PMS5003;74980;50.776;-3.082;2024-01-07T08:28:27;2;2;
84756;PMS5003;74980;50.776;-3.082;2024-01-07T08:30:53;4;4;
84756;PMS5003;74980;50.776;-3.082;2024-01-07T08:33:18;3;3;
84756;PMS5003;74980;50.776;-3.082;2024-01-07T08:35:44;3;3;
84756;PMS5003;74980;50.776;-3.082;2024-01-07T08:38:09;3;3;
84756;PMS5003;74980;50.776;-3.082;2024-01-07T08:40:35;3;3;
84756;PMS5003;74980;50.776;-3.082;2024-01-07T08:43:01;3;3;
84756;PMS5003;74980;50.776;-3.082;2024-01-07T08:45:26;3;3;
84756;PMS5003;74980;50.776;-3.082;2024-01-07T08:47:51;3;2;
84756;PMS5003;74980;50.776;-3.082;2024-01-07T08:50:17;3;3;
84756;PMS5003;74980;50.776;-3.082;2024-01-07T08:52:42;4;4;
84756;PMS5003;74980;50.776;-3.082;2024-01-07T08:55:08;3;3;
84756;PMS5003;74980;50.776;-3.082;2024-01-07T08:57:33;4;3;
84756;PMS5003;74980;50.776;-3.082;2024-01-07T08:59:59;3;3;
84756;PMS5003;74980;50.776;-3.082;2024-01-07T09:02:24;5;3;
84756;PMS5003;74980;50.776;-3.082;2024-01-07T09:04:50;3;3;
84756;PMS5003;74980;50.776;-3.082;2024-01-07T09:07:16;4;4;
84756;PMS5003;74980;50.776;-3.082;2024-01-07T09:09:41;3;3;
84756;PMS5003;74980;50.776;-3.082;2024-01-07T09:12:07;3;3;
84756;PMS5003;74980;50.776;-3.082;2024-01-07T09:14:32;3;3;
84756;PMS5003;74980;50.776;-3.082;2024-01-07T09:16:58;4;4;
84756;PMS5003;74980;50.776;-3.082;2024-01-07T09:19:23;3;3;
84756;PMS5003;74980;50.776;-3.082;2024-01-07T09:21:49;2;2;
84756;PMS5003;74980;50.776;-3.082;2024-01-07T09:24:14;4;3;
84756;PMS5003;74980;50.776;-3.082;2024-01-07T09:26:40;3;3;
84756;PMS5003;74980;50.776;-3.082;2024-01-07T09:29:05;2;2;
84756;PMS5003;74980;50.776;-3.082;2024-01-07T09:31:31;2;2;
84756;PMS5003;74980;50.776;-3.082;2024-01-07T09:33:57;3;3;
84756;PMS5003;74980;50.776;-3.082;2024-01-07T09:36:22;4;4;
84756;PMS5003;74980;50.776;-3.082;2024-01-07T09:38:47;2;2;
84756;PMS5003;74980;50.776;-3.082;2024-01-07T09:41:13;3;3;
84756;PMS5003;74980;50.776;-3.082;2024-01-07T09:43:38;5;3;
84756;PMS5003;74980;50.776;-3.082;2024-01-07T09:46:04;3;3;
84756;PMS5003;74980;50.776;-3.082;2024-01-07T09:48:29;4;4;
84756;PMS5003;74980;50.776;-3.082;2024-01-07T09:50:55;4;3;
84756;PMS5003;74980;50.776;-3.082;2024-01-07T09:53:21;3;3;
84756;PMS5003;74980;50.776;-3.082;2024-01-07T09:55:50;3;3;
84756;PMS5003;74980;50.776;-3.082;2024-01-07T09:58:12;3;3;
84756;PMS5003;74980;50.776;-3.082;2024-01-07T10:00:37;3;3;
84756;PMS5003;74980;50.776;-3.082;2024-01-07T10:03:03;3;2;
84756;PMS5003;74980;50.776;-3.082;2024-01-07T10:05:28;3;3;
84756;PMS5003;74980;50.776;-3.082;2024-01-07T10:07:54;3;3;
84756;PMS5003;74980;50.776;-3.082;2024-01-07T10:10:19;4;4;
84756;PMS5003;74980;50.776;-3.082;2024-01-07T10:12:45;4;4;
84756;PMS5003;74980;50.776;-3.082;2024-01-07T10:15:10;4;4;
84756;PMS5003;74980;50.776;-3.082;2024-01-07T10:17:36;4;3;
84756;PMS5003;74980;50.776;-3.082;2024-01-07T10:20:01;2;2;
84756;PMS5003;74980;50.776;-3.082;2024-01-07T10:22:27;4;4;
84756;PMS5003;74980;50.776;-3.082;2024-01-07T10:24:52;5;5;
84756;PMS5003;74980;50.776;-3.082;2024-01-07T10:27:18;7;6;
84756;PMS5003;74980;50.776;-3.082;2024-01-07T10:29:43;7;4;
84756;PMS5003;74980;50.776;-3.082;2024-01-07T10:32:09;4;4;
84756;PMS5003;74980;50.776;-3.082;2024-01-07T10:34:35;5;3;
84756;PMS5003;74980;50.776;-3.082;2024-01-07T10:37:01;5;5;
84756;PMS5003;74980;50.776;-3.082;2024-01-07T10:39:26;6;6;
84756;PMS5003;74980;50.776;-3.082;2024-01-07T10:41:51;5;4;
84756;PMS5003;74980;50.776;-3.082;2024-01-07T10:44:17;6;5;
84756;PMS5003;74980;50.776;-3.082;2024-01-07T10:46:42;24;21;
84756;PMS5003;74980;50.776;-3.082;2024-01-07T10:49:11;12;11;
84756;PMS5003;74980;50.776;-3.082;2024-01-07T10:51:34;7;6;
84756;PMS5003;74980;50.776;-3.082;2024-01-07T10:53:59;9;8;
84756;PMS5003;74980;50.776;-3.082;2024-01-07T10:56:25;9;7;
84756;PMS5003;74980;50.776;-3.082;2024-01-07T10:58:51;11;8;
84756;PMS5003;74980;50.776;-3.082;2024-01-07T11:01:15;15;12;
84756;PMS5003;74980;50.776;-3.082;2024-01-07T11:03:45;8;7;
84756;PMS5003;74980;50.776;-3.082;2024-01-07T11:06:08;12;11;
84756;PMS5003;74980;50.776;-3.082;2024-01-07T11:08:33;7;7;
84756;PMS5003;74980;50.776;-3.082;2024-01-07T11:10:59;10;10;
84756;PMS5003;74980;50.776;-3.082;2024-01-07T11:13:31;11;9;
84756;PMS5003;74980;50.776;-3.082;2024-01-07T11:15:52;13;11;
84756;PMS5003;74980;50.776;-3.082;2024-01-07T11:18:16;11;10;
84756;PMS5003;74980;50.776;-3.082;2024-01-07T11:20:39;15;13;
84756;PMS5003;74980;50.776;-3.082;2024-01-07T11:25:31;13;10;
84756;PMS5003;74980;50.776;-3.082;2024-01-07T11:30:21;13;11;
84756;PMS5003;74980;50.776;-3.082;2024-01-07T11:32:46;13;12;
84756;PMS5003;74980;50.776;-3.082;2024-01-07T11:35:13;9;9;
84756;PMS5003;74980;50.776;-3.082;2024-01-07T11:37:37;8;8;
84756;PMS5003;74980;50.776;-3.082;2024-01-07T11:40:03;10;8;
84756;PMS5003;74980;50.776;-3.082;2024-01-07T11:42:28;7;6;
84756;PMS5003;74980;50.776;-3.082;2024-01-07T11:44:54;8;7;
84756;PMS5003;74980;50.776;-3.082;2024-01-07T11:47:20;11;9;
84756;PMS5003;74980;50.776;-3.082;2024-01-07T11:49:45;7;7;
84756;PMS5003;74980;50.776;-3.082;2024-01-07T11:52:10;9;7;
84756;PMS5003;74980;50.776;-3.082;2024-01-07T11:54:36;10;10;
84756;PMS5003;74980;50.776;-3.082;2024-01-07T11:57:01;9;9;
84756;PMS5003;74980;50.776;-3.082;2024-01-07T11:59:27;9;8;
84756;PMS5003;74980;50.776;-3.082;2024-01-07T12:01:52;8;7;
84756;PMS5003;74980;50.776;-3.082;2024-01-07T12:04:18;9;9;
84756;PMS5003;74980;50.776;-3.082;2024-01-07T12:06:43;14;11;
84756;PMS5003;74980;50.776;-3.082;2024-01-07T12:09:12;9;8;
84756;PMS5003;74980;50.776;-3.082;2024-01-07T12:11:34;7;6;
84756;PMS5003;74980;50.776;-3.082;2024-01-07T12:14:00;10;7;
84756;PMS5003;74980;50.776;-3.082;2024-01-07T12:16:25;8;7;
84756;PMS5003;74980;50.776;-3.082;2024-01-07T12:18:51;8;7;
84756;PMS5003;74980;50.776;-3.082;2024-01-07T12:21:18;10;9;
84756;PMS5003;74980;50.776;-3.082;2024-01-07T12:23:41;9;8;
84756;PMS5003;74980;50.776;-3.082;2024-01-07T12:26:07;11;8;
84756;PMS5003;74980;50.776;-3.082;2024-01-07T12:28:32;7;7;
84756;PMS5003;74980;50.776;-3.082;2024-01-07T12:30:58;6;5;
84756;PMS5003;74980;50.776;-3.082;2024-01-07T12:33:23;8;6;
84756;PMS5003;74980;50.776;-3.082;2024-01-07T12:35:49;6;5;
84756;PMS5003;74980;50.776;-3.082;2024-01-07T12:38:14;8;5;
84756;PMS5003;74980;50.776;-3.082;2024-01-07T12:40:39;7;6;
84756;PMS5003;74980;50.776;-3.082;2024-01-07T12:43:05;9;8;
84756;PMS5003;74980;50.776;-3.082;2024-01-07T12:45:31;5;5;
84756;PMS5003;74980;50.776;-3.082;2024-01-07T12:47:57;8;7;
84756;PMS5003;74980;50.776;-3.082;2024-01-07T12:50:22;8;6;
84756;PMS5003;74980;50.776;-3.082;2024-01-07T12:52:48;7;7;
84756;PMS5003;74980;50.776;-3.082;2024-01-07T12:55:13;6;6;
84756;PMS5003;74980;50.776;-3.082;2024-01-07T12:57:39;6;6;
84756;PMS5003;74980;50.776;-3.082;2024-01-07T13:00:05;6;6;
84756;PMS5003;74980;50.776;-3.082;2024-01-07T13:02:30;7;6;
84756;PMS5003;74980;50.776;-3.082;2024-01-07T13:04:56;7;7;
84756;PMS5003;74980;50.776;-3.082;2024-01-07T13:07:21;8;7;
84756;PMS5003;74980;50.776;-3.082;2024-01-07T13:09:47;5;5;
84756;PMS5003;74980;50.776;-3.082;2024-01-07T13:12:12;6;5;
84756;PMS5003;74980;50.776;-3.082;2024-01-07T13:14:38;6;4;
84756;PMS5003;74980;50.776;-3.082;2024-01-07T13:17:03;9;7;
84756;PMS5003;74980;50.776;-3.082;2024-01-07T13:19:29;5;5;
84756;PMS5003;74980;50.776;-3.082;2024-01-07T13:21:54;6;6;
84756;PMS5003;74980;50.776;-3.082;2024-01-07T13:24:20;4;4;
84756;PMS5003;74980;50.776;-3.082;2024-01-07T13:26:45;8;5;
84756;PMS5003;74980;50.776;-3.082;2024-01-07T13:29:11;5;5;
84756;PMS5003;74980;50.776;-3.082;2024-01-07T13:31:37;7;6;
84756;PMS5003;74980;50.776;-3.082;2024-01-07T13:34:03;5;5;
84756;PMS5003;74980;50.776;-3.082;2024-01-07T13:36:28;6;6;
84756;PMS5003;74980;50.776;-3.082;2024-01-07T13:38:53;6;5;
84756;PMS5003;74980;50.776;-3.082;2024-01-07T13:41:20;6;5;
84756;PMS5003;74980;50.776;-3.082;2024-01-07T13:43:46;6;5;
84756;PMS5003;74980;50.776;-3.082;2024-01-07T13:46:10;4;4;
84756;PMS5003;74980;50.776;-3.082;2024-01-07T13:48:35;5;5;
84756;PMS5003;74980;50.776;-3.082;2024-01-07T13:51:01;5;4;
84756;PMS5003;74980;50.776;-3.082;2024-01-07T13:53:26;4;4;
84756;PMS5003;74980;50.776;-3.082;2024-01-07T13:55:52;4;3;
84756;PMS5003;74980;50.776;-3.082;2024-01-07T13:58:17;4;3;
84756;PMS5003;74980;50.776;-3.082;2024-01-07T14:00:43;6;6;
84756;PMS5003;74980;50.776;-3.082;2024-01-07T14:03:08;3;3;
84756;PMS5003;74980;50.776;-3.082;2024-01-07T14:05:34;6;5;
84756;PMS5003;74980;50.776;-3.082;2024-01-07T14:07:59;3;3;
84756;PMS5003;74980;50.776;-3.082;2024-01-07T14:10:25;4;4;
84756;PMS5003;74980;50.776;-3.082;2024-01-07T14:12:50;6;5;
84756;PMS5003;74980;50.776;-3.082;2024-01-07T14:15:16;5;3;
84756;PMS5003;74980;50.776;-3.082;2024-01-07T14:17:41;4;3;
84756;PMS5003;74980;50.776;-3.082;2024-01-07T14:20:07;4;4;
84756;PMS5003;74980;50.776;-3.082;2024-01-07T14:22:32;6;5;
84756;PMS5003;74980;50.776;-3.082;2024-01-07T14:24:58;5;5;
84756;PMS5003;74980;50.776;-3.082;2024-01-07T14:27:23;5;5;
84756;PMS5003;74980;50.776;-3.082;2024-01-07T14:29:49;4;2;
84756;PMS5003;74980;50.776;-3.082;2024-01-07T14:32:14;3;3;
84756;PMS5003;74980;50.776;-3.082;2024-01-07T14:34:39;6;4;
84756;PMS5003;74980;50.776;-3.082;2024-01-07T14:37:05;5;4;
84756;PMS5003;74980;50.776;-3.082;2024-01-07T14:39:30;3;3;
84756;PMS5003;74980;50.776;-3.082;2024-01-07T14:41:56;3;3;
84756;PMS5003;74980;50.776;-3.082;2024-01-07T14:44:22;4;3;
84756;PMS5003;74980;50.776;-3.082;2024-01-07T14:46:47;3;3;
84756;PMS5003;74980;50.776;-3.082;2024-01-07T14:49:13;4;4;
84756;PMS5003;74980;50.776;-3.082;2024-01-07T14:51:38;5;5;
84756;PMS5003;74980;50.776;-3.082;2024-01-07T14:54:04;7;5;
84756;PMS5003;74980;50.776;-3.082;2024-01-07T14:56:29;5;5;
84756;PMS5003;74980;50.776;-3.082;2024-01-07T14:58:55;4;4;
84756;PMS5003;74980;50.776;-3.082;2024-01-07T15:01:20;5;4;
84756;PMS5003;74980;50.776;-3.082;2024-01-07T15:03:46;8;6;
84756;PMS5003;74980;50.776;-3.082;2024-01-07T15:06:11;9;8;
84756;PMS5003;74980;50.776;-3.082;2024-01-07T15:08:37;9;9;
84756;PMS5003;74980;50.776;-3.082;2024-01-07T15:11:02;8;7;
84756;PMS5003;74980;50.776;-3.082;2024-01-07T15:13:28;6;5;
84756;PMS5003;74980;50.776;-3.082;2024-01-07T15:15:53;5;5;
84756;PMS5003;74980;50.776;-3.082;2024-01-07T15:18:19;5;5;
84756;PMS5003;74980;50.776;-3.082;2024-01-07T15:20:45;7;6;
84756;PMS5003;74980;50.776;-3.082;2024-01-07T15:23:11;6;6;
84756;PMS5003;74980;50.776;-3.082;2024-01-07T15:25:36;5;4;
84756;PMS5003;74980;50.776;-3.082;2024-01-07T15:28:01;7;6;
84756;PMS5003;74980;50.776;-3.082;2024-01-07T15:30:27;3;3;
84756;PMS5003;74980;50.776;-3.082;2024-01-07T15:35:18;4;4;
84756;PMS5003;74980;50.776;-3.082;2024-01-07T15:37:43;4;4;
84756;PMS5003;74980;50.776;-3.082;2024-01-07T15:40:09;3;3;
84756;PMS5003;74980;50.776;-3.082;2024-01-07T15:42:34;4;4;
84756;PMS5003;74980;50.776;-3.082;2024-01-07T15:45:00;5;4;
84756;PMS5003;74980;50.776;-3.082;2024-01-07T15:47:26;6;6;
84756;PMS5003;74980;50.776;-3.082;2024-01-07T15:49:51;5;5;
84756;PMS5003;74980;50.776;-3.082;2024-01-07T15:52:17;5;5;
84756;PMS5003;74980;50.776;-3.082;2024-01-07T15:54:42;4;4;
84756;PMS5003;74980;50.776;-3.082;2024-01-07T15:57:08;4;4;
84756;PMS5003;74980;50.776;-3.082;2024-01-07T15:59:33;4;4;
84756;PMS5003;74980;50.776;-3.082;2024-01-07T16:01:59;5;4;
84756;PMS5003;74980;50.776;-3.082;2024-01-07T16:04:24;4;3;
84756;PMS5003;74980;50.776;-3.082;2024-01-07T16:06:50;4;4;
84756;PMS5003;74980;50.776;-3.082;2024-01-07T16:09:15;3;3;
84756;PMS5003;74980;50.776;-3.082;2024-01-07T16:11:41;4;3;
84756;PMS5003;74980;50.776;-3.082;2024-01-07T16:14:06;5;4;
84756;PMS5003;74980;50.776;-3.082;2024-01-07T16:16:32;3;2;
84756;PMS5003;74980;50.776;-3.082;2024-01-07T16:18:58;4;4;
84756;PMS5003;74980;50.776;-3.082;2024-01-07T16:21:23;5;5;
84756;PMS5003;74980;50.776;-3.082;2024-01-07T16:23:49;3;3;
84756;PMS5003;74980;50.776;-3.082;2024-01-07T16:26:14;4;4;